createdAt,value
2023-03-31T00:00:12.325Z,1.35
2023-03-31T00:06:19.765Z,0.90
2023-03-31T00:12:23.514Z,1.40
2023-03-31T00:18:27.106Z,1.35
2023-03-31T00:24:33.012Z,1.45
2023-03-31T00:30:36.777Z,1.08
2023-03-31T00:36:47.734Z,1.45
2023-03-31T00:42:54.155Z,1.88
2023-03-31T00:48:58.426Z,1.85
2023-03-31T00:55:03.931Z,1.70
2023-03-31T01:01:08.767Z,1.20
2023-03-31T01:07:17.174Z,1.40
2023-03-31T01:13:20.972Z,1.38
2023-03-31T01:19:28.800Z,1.70
2023-03-31T01:25:44.081Z,1.20
2023-03-31T01:32:01.034Z,1.58
2023-03-31T01:38:14.987Z,1.75
2023-03-31T01:44:25.342Z,2.00
2023-03-31T01:50:31.143Z,1.88
2023-03-31T01:56:36.452Z,1.52
2023-03-31T02:02:42.945Z,1.58
2023-03-31T02:08:48.875Z,1.58
2023-03-31T02:14:54.216Z,1.52
2023-03-31T02:21:00.067Z,1.67
2023-03-31T02:27:07.611Z,1.27
2023-03-31T02:33:11.052Z,1.65
2023-03-31T02:39:17.510Z,1.27
2023-03-31T02:45:41.981Z,1.23
2023-03-31T02:52:00.256Z,0.98
2023-03-31T02:58:13.415Z,1.40
2023-03-31T03:04:25.847Z,0.77
2023-03-31T03:10:32.094Z,0.90
2023-03-31T03:16:39.166Z,0.60
2023-03-31T03:22:42.619Z,0.90
2023-03-31T03:28:46.109Z,0.80
2023-03-31T03:34:50.960Z,0.90
2023-03-31T03:40:55.064Z,0.70
2023-03-31T03:46:58.550Z,0.40
2023-03-31T03:53:03.341Z,0.47
2023-03-31T03:59:07.174Z,0.50
2023-03-31T04:05:11.595Z,0.32
2023-03-31T04:11:18.914Z,0.60
2023-03-31T04:17:32.912Z,0.80
2023-03-31T04:23:38.484Z,0.65
2023-03-31T04:29:47.718Z,0.77
2023-03-31T04:35:52.726Z,0.70
2023-03-31T04:41:56.508Z,0.40
2023-03-31T04:48:01.604Z,0.60
2023-03-31T04:54:05.310Z,0.80
2023-03-31T05:00:11.049Z,0.80
2023-03-31T05:06:17.574Z,1.40
2023-03-31T05:12:21.026Z,1.40
2023-03-31T05:18:24.441Z,1.73
2023-03-31T05:24:30.099Z,1.40
2023-03-31T05:30:33.585Z,1.33
2023-03-31T05:36:37.471Z,1.30
2023-03-31T05:42:42.877Z,1.23
2023-03-31T05:48:46.356Z,1.38
2023-03-31T05:54:49.760Z,1.40
2023-03-31T06:01:02.466Z,2.40
2023-03-31T06:07:06.448Z,2.15
2023-03-31T06:13:10.006Z,1.40
2023-03-31T06:19:14.973Z,1.70
2023-03-31T06:25:18.566Z,1.90
2023-03-31T06:31:24.203Z,2.15
2023-03-31T06:37:29.078Z,1.73
2023-03-31T06:43:32.730Z,2.50
2023-03-31T06:49:36.194Z,3.35
2023-03-31T06:55:41.110Z,2.42
2023-03-31T07:01:46.391Z,2.30
2023-03-31T07:07:50.036Z,2.33
2023-03-31T07:13:54.853Z,2.88
2023-03-31T07:19:58.985Z,10.27
2023-03-31T07:26:02.975Z,10.00
2023-03-31T07:32:08.072Z,2.00
2023-03-31T07:38:12.010Z,2.17
2023-03-31T07:44:16.082Z,2.25
2023-03-31T07:50:21.566Z,2.03
2023-03-31T07:56:26.129Z,2.03
2023-03-31T08:02:29.887Z,2.05
2023-03-31T08:08:34.766Z,1.95
2023-03-31T08:14:41.315Z,2.30
2023-03-31T08:20:47.116Z,1.98
2023-03-31T08:26:53.966Z,1.88
2023-03-31T08:32:57.741Z,1.75
2023-03-31T08:39:01.439Z,1.93
2023-03-31T08:45:08.191Z,1.95
2023-03-31T08:51:14.300Z,1.97
2023-03-31T08:57:20.283Z,2.15
2023-03-31T09:03:28.932Z,3.10
2023-03-31T09:09:38.778Z,1.60
2023-03-31T09:15:44.793Z,1.30
2023-03-31T09:21:51.759Z,2.30
2023-03-31T09:27:57.396Z,1.95
2023-03-31T09:34:03.051Z,1.70
2023-03-31T09:40:09.022Z,2.55
2023-03-31T09:46:17.560Z,1.73
2023-03-31T09:52:26.210Z,1.23
2023-03-31T09:58:31.792Z,1.05
2023-03-31T10:04:36.443Z,1.90
2023-03-31T10:10:40.218Z,1.63
2023-03-31T10:16:48.157Z,2.38
2023-03-31T10:22:52.732Z,1.83
2023-03-31T10:28:56.625Z,1.58
2023-03-31T10:35:06.401Z,2.00
2023-03-31T10:41:10.353Z,1.10
2023-03-31T10:47:21.909Z,1.40
2023-03-31T10:53:26.719Z,2.07
2023-03-31T10:59:43.232Z,1.45
2023-03-31T11:05:49.240Z,1.10
2023-03-31T11:12:00.049Z,1.33
2023-03-31T11:18:08.835Z,1.90
2023-03-31T11:24:19.780Z,1.40
2023-03-31T11:30:27.062Z,1.65
2023-03-31T11:36:36.886Z,1.13
2023-03-31T11:42:51.405Z,1.10
2023-03-31T11:48:59.310Z,1.17
2023-03-31T11:55:04.173Z,1.52
2023-03-31T12:01:12.500Z,1.30
2023-03-31T12:07:24.089Z,1.33
2023-03-31T12:13:38.160Z,1.00
2023-03-31T12:19:46.542Z,1.67
2023-03-31T12:25:53.991Z,1.50
2023-03-31T12:31:58.661Z,1.15
2023-03-31T12:38:15.825Z,1.42
2023-03-31T12:44:28.878Z,1.45
2023-03-31T12:50:38.499Z,1.23
2023-03-31T12:57:00.580Z,1.00
2023-03-31T13:03:22.655Z,0.82
2023-03-31T13:09:47.261Z,1.13
2023-03-31T13:15:52.821Z,1.27
2023-03-31T13:21:57.058Z,1.20
2023-03-31T13:28:10.691Z,1.30
2023-03-31T13:34:14.216Z,1.67
2023-03-31T13:40:30.103Z,1.05
2023-03-31T13:46:45.716Z,1.23
2023-03-31T13:52:55.307Z,1.60
2023-03-31T13:59:19.803Z,1.40
2023-03-31T14:05:27.513Z,1.30
2023-03-31T14:11:31.906Z,1.30
2023-03-31T14:17:36.639Z,1.00
2023-03-31T14:23:46.556Z,1.10
2023-03-31T14:29:52.849Z,0.80
2023-03-31T14:36:01.931Z,1.17
2023-03-31T14:42:07.526Z,1.10
2023-03-31T14:48:13.621Z,1.50
2023-03-31T14:54:18.390Z,1.20
2023-03-31T15:00:28.045Z,1.60
2023-03-31T15:06:34.009Z,1.40
2023-03-31T15:12:38.584Z,1.80
2023-03-31T15:18:44.522Z,1.65
2023-03-31T15:24:47.978Z,1.58
2023-03-31T15:30:59.918Z,2.17
2023-03-31T15:37:14.740Z,1.75
2023-03-31T15:43:25.792Z,2.55
2023-03-31T15:49:30.025Z,2.17
2023-03-31T16:01:51.164Z,2.03
2023-03-31T16:07:54.832Z,2.03
2023-03-31T16:14:01.733Z,2.80
2023-03-31T16:20:08.895Z,2.53
2023-03-31T16:26:13.263Z,3.05
2023-03-31T16:32:18.794Z,2.45
2023-03-31T16:38:23.220Z,2.47
2023-03-31T16:44:26.875Z,2.33
2023-03-31T16:50:31.812Z,3.17
2023-03-31T16:56:35.590Z,2.47
2023-03-31T17:02:39.203Z,2.92
2023-03-31T17:08:44.278Z,3.28
2023-03-31T17:14:47.748Z,2.78
2023-03-31T17:20:51.508Z,3.80
2023-03-31T17:26:56.661Z,4.13
2023-03-31T17:33:00.372Z,3.85
2023-03-31T17:39:05.131Z,4.30
2023-03-31T17:45:11.733Z,3.08
2023-03-31T17:51:16.681Z,3.03
2023-03-31T17:57:20.264Z,3.80
2023-03-31T18:03:25.250Z,3.47
2023-03-31T18:09:28.719Z,3.55
2023-03-31T18:15:32.387Z,3.25
2023-03-31T18:21:37.289Z,3.30
2023-03-31T18:27:40.944Z,4.53
2023-03-31T18:33:44.518Z,4.10
2023-03-31T18:39:49.421Z,2.67
2023-03-31T18:45:53.830Z,2.22
2023-03-31T18:51:58.776Z,2.28
2023-03-31T18:58:03.755Z,2.63
2023-03-31T19:04:07.282Z,2.70
2023-03-31T19:10:11.489Z,2.78
2023-03-31T19:16:17.581Z,2.38
2023-03-31T19:22:21.083Z,2.65
2023-03-31T19:28:24.786Z,2.42
2023-03-31T19:34:29.900Z,2.47
2023-03-31T19:40:33.491Z,2.72
2023-03-31T19:46:37.019Z,2.22
2023-03-31T19:52:42.319Z,2.00
2023-03-31T19:58:47.223Z,3.28
2023-03-31T20:04:51.643Z,2.13
2023-03-31T20:11:00.003Z,2.80
2023-03-31T20:17:04.937Z,2.25
2023-03-31T20:23:08.789Z,2.80
2023-03-31T20:29:14.077Z,2.38
2023-03-31T20:35:17.615Z,2.20
2023-03-31T20:41:21.974Z,2.20
2023-03-31T20:47:28.540Z,2.80
2023-03-31T20:53:32.092Z,2.50
2023-03-31T20:59:35.540Z,2.80
2023-03-31T21:05:44.545Z,2.15
2023-03-31T21:11:47.988Z,2.20
2023-03-31T21:17:51.611Z,2.00
2023-03-31T21:23:56.471Z,2.15
2023-03-31T21:30:00.168Z,1.85
2023-03-31T21:36:03.863Z,1.70
2023-03-31T21:42:08.695Z,1.77
2023-03-31T21:48:12.856Z,2.17
2023-03-31T21:54:16.616Z,2.03
2023-03-31T22:00:22.049Z,1.70
2023-03-31T22:06:25.590Z,1.88
2023-03-31T22:12:43.620Z,1.80
2023-03-31T22:18:54.916Z,1.40
2023-03-31T22:24:58.388Z,1.42
2023-03-31T22:31:04.119Z,1.48
2023-03-31T22:37:13.711Z,1.67
2023-03-31T22:43:17.686Z,1.50
2023-03-31T22:49:21.211Z,1.70
2023-03-31T22:55:26.559Z,1.70
2023-03-31T23:01:30.230Z,1.92
2023-03-31T23:07:33.841Z,1.42
2023-03-31T23:13:38.684Z,1.45
2023-03-31T23:19:43.207Z,1.67
2023-03-31T23:25:47.005Z,1.35
2023-03-31T23:31:51.867Z,1.75
2023-03-31T23:37:55.429Z,2.13
2023-03-31T23:43:59.032Z,1.90
2023-03-31T23:50:03.828Z,1.45
2023-03-31T23:56:08.811Z,1.50
